sensor_id;sensor_type;location;lat;lon;timestamp;P1;durP1;ratioP1;P2;durP2;ratioP2
74293;SDS011;64044;59.904;10.738;2023-04-01T00:00:29;2.92;;;1.08;;
74293;SDS011;64044;59.904;10.738;2023-04-01T00:02:55;2.70;;;1.05;;
74293;SDS011;64044;59.904;10.738;2023-04-01T00:05:21;3.53;;;1.00;;
74293;SDS011;64044;59.904;10.738;2023-04-01T00:07:49;3.42;;;1.05;;
74293;SDS011;64044;59.904;10.738;2023-04-01T00:10:15;7.35;;;1.00;;
74293;SDS011;64044;59.904;10.738;2023-04-01T00:12:42;2.88;;;1.00;;
74293;SDS011;64044;59.904;10.738;2023-04-01T00:15:08;2.47;;;1.23;;
74293;SDS011;64044;59.904;10.738;2023-04-01T00:17:35;5.75;;;1.80;;
74293;SDS011;64044;59.904;10.738;2023-04-01T00:20:02;3.80;;;1.00;;
74293;SDS011;64044;59.904;10.738;2023-04-01T00:22:28;4.03;;;1.60;;
74293;SDS011;64044;59.904;10.738;2023-04-01T00:24:54;2.15;;;1.00;;
74293;SDS011;64044;59.904;10.738;2023-04-01T00:27:19;2.70;;;1.23;;
74293;SDS011;64044;59.904;10.738;2023-04-01T00:29:45;6.28;;;1.20;;
74293;SDS011;64044;59.904;10.738;2023-04-01T00:32:12;2.50;;;1.30;;
74293;SDS011;64044;59.904;10.738;2023-04-01T00:34:39;6.80;;;1.60;;
74293;SDS011;64044;59.904;10.738;2023-04-01T00:37:05;2.72;;;1.52;;
74293;SDS011;64044;59.904;10.738;2023-04-01T00:39:32;5.85;;;1.65;;
74293;SDS011;64044;59.904;10.738;2023-04-01T00:41:59;4.72;;;1.40;;
74293;SDS011;64044;59.904;10.738;2023-04-01T00:44:30;5.05;;;1.38;;
74293;SDS011;64044;59.904;10.738;2023-04-01T00:46:58;7.03;;;1.52;;
74293;SDS011;64044;59.904;10.738;2023-04-01T00:49:29;3.88;;;1.58;;
74293;SDS011;64044;59.904;10.738;2023-04-01T00:52:07;4.43;;;1.67;;
74293;SDS011;64044;59.904;10.738;2023-04-01T00:54:36;3.42;;;1.40;;
74293;SDS011;64044;59.904;10.738;2023-04-01T00:57:05;2.70;;;1.05;;
74293;SDS011;64044;59.904;10.738;2023-04-01T00:59:52;4.35;;;1.15;;
74293;SDS011;64044;59.904;10.738;2023-04-01T01:02:20;1.52;;;0.85;;
74293;SDS011;64044;59.904;10.738;2023-04-01T01:04:46;5.90;;;1.13;;
74293;SDS011;64044;59.904;10.738;2023-04-01T01:15:40;3.00;;;1.10;;
74293;SDS011;64044;59.904;10.738;2023-04-01T01:18:19;5.05;;;0.90;;
74293;SDS011;64044;59.904;10.738;2023-04-01T01:37:13;3.55;;;1.05;;
74293;SDS011;64044;59.904;10.738;2023-04-01T01:39:43;6.45;;;0.98;;
74293;SDS011;64044;59.904;10.738;2023-04-01T01:42:13;2.60;;;1.23;;
74293;SDS011;64044;59.904;10.738;2023-04-01T01:44:41;8.10;;;1.60;;
74293;SDS011;64044;59.904;10.738;2023-04-01T01:47:09;8.43;;;1.77;;
74293;SDS011;64044;59.904;10.738;2023-04-01T01:49:36;5.45;;;1.48;;
74293;SDS011;64044;59.904;10.738;2023-04-01T01:52:04;2.50;;;1.13;;
74293;SDS011;64044;59.904;10.738;2023-04-01T01:54:30;4.78;;;1.13;;
74293;SDS011;64044;59.904;10.738;2023-04-01T01:56:59;3.00;;;1.13;;
74293;SDS011;64044;59.904;10.738;2023-04-01T01:59:31;5.43;;;1.05;;
74293;SDS011;64044;59.904;10.738;2023-04-01T02:01:59;5.45;;;1.25;;
74293;SDS011;64044;59.904;10.738;2023-04-01T02:04:32;3.75;;;1.00;;
74293;SDS011;64044;59.904;10.738;2023-04-01T02:07:04;2.70;;;1.13;;
74293;SDS011;64044;59.904;10.738;2023-04-01T02:09:33;2.05;;;0.70;;
74293;SDS011;64044;59.904;10.738;2023-04-01T02:12:04;2.72;;;0.80;;
74293;SDS011;64044;59.904;10.738;2023-04-01T02:14:38;2.28;;;0.63;;
74293;SDS011;64044;59.904;10.738;2023-04-01T02:17:15;3.10;;;1.20;;
74293;SDS011;64044;59.904;10.738;2023-04-01T02:19:50;2.47;;;0.80;;
74293;SDS011;64044;59.904;10.738;2023-04-01T02:22:21;1.77;;;0.70;;
74293;SDS011;64044;59.904;10.738;2023-04-01T02:24:54;2.15;;;0.88;;
74293;SDS011;64044;59.904;10.738;2023-04-01T02:27:23;3.75;;;0.60;;
74293;SDS011;64044;59.904;10.738;2023-04-01T02:29:50;4.25;;;1.00;;
74293;SDS011;64044;59.904;10.738;2023-04-01T02:32:17;0.47;;;0.38;;
74293;SDS011;64044;59.904;10.738;2023-04-01T02:34:44;2.90;;;0.75;;
74293;SDS011;64044;59.904;10.738;2023-04-01T02:37:11;3.13;;;0.70;;
74293;SDS011;64044;59.904;10.738;2023-04-01T02:39:37;1.30;;;0.80;;
74293;SDS011;64044;59.904;10.738;2023-04-01T02:42:03;2.15;;;0.68;;
74293;SDS011;64044;59.904;10.738;2023-04-01T02:44:29;3.92;;;0.75;;
74293;SDS011;64044;59.904;10.738;2023-04-01T02:46:55;1.17;;;0.82;;
74293;SDS011;64044;59.904;10.738;2023-04-01T02:49:20;6.35;;;0.90;;
74293;SDS011;64044;59.904;10.738;2023-04-01T02:51:46;1.40;;;0.60;;
74293;SDS011;64044;59.904;10.738;2023-04-01T02:54:12;2.03;;;0.70;;
74293;SDS011;64044;59.904;10.738;2023-04-01T02:56:38;3.38;;;0.60;;
74293;SDS011;64044;59.904;10.738;2023-04-01T02:59:03;4.40;;;0.70;;
74293;SDS011;64044;59.904;10.738;2023-04-01T03:01:29;1.05;;;0.57;;
74293;SDS011;64044;59.904;10.738;2023-04-01T03:03:55;0.77;;;0.50;;
74293;SDS011;64044;59.904;10.738;2023-04-01T03:06:21;1.23;;;0.43;;
74293;SDS011;64044;59.904;10.738;2023-04-01T03:08:46;0.60;;;0.40;;
74293;SDS011;64044;59.904;10.738;2023-04-01T03:11:12;0.52;;;0.40;;
74293;SDS011;64044;59.904;10.738;2023-04-01T03:13:38;3.00;;;0.73;;
74293;SDS011;64044;59.904;10.738;2023-04-01T03:16:04;0.50;;;0.47;;
74293;SDS011;64044;59.904;10.738;2023-04-01T03:18:30;0.95;;;0.30;;
74293;SDS011;64044;59.904;10.738;2023-04-01T03:20:56;2.05;;;0.50;;
74293;SDS011;64044;59.904;10.738;2023-04-01T03:23:21;1.48;;;0.60;;
74293;SDS011;64044;59.904;10.738;2023-04-01T03:25:49;0.80;;;0.40;;
74293;SDS011;64044;59.904;10.738;2023-04-01T03:28:15;2.63;;;0.90;;
74293;SDS011;64044;59.904;10.738;2023-04-01T03:30:40;1.20;;;0.43;;
74293;SDS011;64044;59.904;10.738;2023-04-01T03:33:06;1.40;;;0.60;;
74293;SDS011;64044;59.904;10.738;2023-04-01T03:35:32;1.55;;;0.30;;
74293;SDS011;64044;59.904;10.738;2023-04-01T03:38:00;1.92;;;0.70;;
74293;SDS011;64044;59.904;10.738;2023-04-01T03:40:26;2.65;;;0.52;;
74293;SDS011;64044;59.904;10.738;2023-04-01T03:42:52;0.80;;;0.40;;
74293;SDS011;64044;59.904;10.738;2023-04-01T03:45:18;0.50;;;0.40;;
74293;SDS011;64044;59.904;10.738;2023-04-01T03:47:44;2.40;;;0.38;;
74293;SDS011;64044;59.904;10.738;2023-04-01T03:50:09;3.05;;;0.60;;
74293;SDS011;64044;59.904;10.738;2023-04-01T03:52:36;1.40;;;0.50;;
74293;SDS011;64044;59.904;10.738;2023-04-01T03:55:01;2.28;;;0.50;;
74293;SDS011;64044;59.904;10.738;2023-04-01T03:57:27;1.27;;;0.52;;
74293;SDS011;64044;59.904;10.738;2023-04-01T03:59:55;2.60;;;0.50;;
74293;SDS011;64044;59.904;10.738;2023-04-01T04:02:21;0.93;;;0.47;;
74293;SDS011;64044;59.904;10.738;2023-04-01T04:04:47;13.65;;;0.82;;
74293;SDS011;64044;59.904;10.738;2023-04-01T04:07:12;1.48;;;0.50;;
74293;SDS011;64044;59.904;10.738;2023-04-01T04:09:38;0.55;;;0.40;;
74293;SDS011;64044;59.904;10.738;2023-04-01T04:12:04;1.10;;;0.52;;
74293;SDS011;64044;59.904;10.738;2023-04-01T04:14:31;2.85;;;1.80;;
74293;SDS011;64044;59.904;10.738;2023-04-01T04:16:57;1.40;;;0.50;;
74293;SDS011;64044;59.904;10.738;2023-04-01T04:19:23;0.43;;;0.30;;
74293;SDS011;64044;59.904;10.738;2023-04-01T04:21:48;2.47;;;0.35;;
74293;SDS011;64044;59.904;10.738;2023-04-01T04:24:14;0.60;;;0.57;;
74293;SDS011;64044;59.904;10.738;2023-04-01T04:26:40;1.15;;;0.50;;
74293;SDS011;64044;59.904;10.738;2023-04-01T04:29:06;1.55;;;0.47;;
74293;SDS011;64044;59.904;10.738;2023-04-01T04:31:31;2.10;;;0.50;;
74293;SDS011;64044;59.904;10.738;2023-04-01T04:33:58;4.70;;;0.55;;
74293;SDS011;64044;59.904;10.738;2023-04-01T04:36:26;0.60;;;0.47;;
74293;SDS011;64044;59.904;10.738;2023-04-01T04:38:51;0.55;;;0.40;;
74293;SDS011;64044;59.904;10.738;2023-04-01T04:41:18;4.20;;;0.80;;
74293;SDS011;64044;59.904;10.738;2023-04-01T04:43:52;0.95;;;0.70;;
74293;SDS011;64044;59.904;10.738;2023-04-01T04:46:19;1.00;;;0.55;;
74293;SDS011;64044;59.904;10.738;2023-04-01T04:48:46;1.85;;;0.63;;
74293;SDS011;64044;59.904;10.738;2023-04-01T04:51:13;1.90;;;0.50;;
74293;SDS011;64044;59.904;10.738;2023-04-01T04:53:40;1.75;;;0.52;;
74293;SDS011;64044;59.904;10.738;2023-04-01T04:56:06;8.32;;;0.85;;
74293;SDS011;64044;59.904;10.738;2023-04-01T04:58:32;1.10;;;0.50;;
74293;SDS011;64044;59.904;10.738;2023-04-01T05:00:58;0.82;;;0.45;;
74293;SDS011;64044;59.904;10.738;2023-04-01T05:03:30;1.00;;;0.50;;
74293;SDS011;64044;59.904;10.738;2023-04-01T05:05:55;1.83;;;0.35;;
74293;SDS011;64044;59.904;10.738;2023-04-01T05:08:21;1.35;;;0.50;;
74293;SDS011;64044;59.904;10.738;2023-04-01T05:10:47;0.90;;;0.50;;
74293;SDS011;64044;59.904;10.738;2023-04-01T05:13:12;0.98;;;0.28;;
74293;SDS011;64044;59.904;10.738;2023-04-01T05:15:38;0.38;;;0.20;;
74293;SDS011;64044;59.904;10.738;2023-04-01T05:18:04;0.63;;;0.40;;
74293;SDS011;64044;59.904;10.738;2023-04-01T05:20:30;0.32;;;0.32;;
74293;SDS011;64044;59.904;10.738;2023-04-01T05:22:56;0.65;;;0.40;;
74293;SDS011;64044;59.904;10.738;2023-04-01T05:25:22;0.93;;;0.40;;
74293;SDS011;64044;59.904;10.738;2023-04-01T05:27:48;0.77;;;0.50;;
74293;SDS011;64044;59.904;10.738;2023-04-01T05:30:13;3.97;;;0.80;;
74293;SDS011;64044;59.904;10.738;2023-04-01T05:32:39;0.35;;;0.32;;
74293;SDS011;64044;59.904;10.738;2023-04-01T05:35:05;2.78;;;0.50;;
74293;SDS011;64044;59.904;10.738;2023-04-01T05:37:33;1.55;;;0.57;;
74293;SDS011;64044;59.904;10.738;2023-04-01T05:39:59;0.55;;;0.40;;
74293;SDS011;64044;59.904;10.738;2023-04-01T05:42:25;6.13;;;0.70;;
74293;SDS011;64044;59.904;10.738;2023-04-01T05:44:51;1.95;;;0.57;;
74293;SDS011;64044;59.904;10.738;2023-04-01T05:47:17;3.33;;;0.68;;
74293;SDS011;64044;59.904;10.738;2023-04-01T05:49:42;1.05;;;0.70;;
74293;SDS011;64044;59.904;10.738;2023-04-01T05:52:08;3.13;;;1.38;;
74293;SDS011;64044;59.904;10.738;2023-04-01T05:54:34;3.72;;;0.80;;
74293;SDS011;64044;59.904;10.738;2023-04-01T05:56:59;3.22;;;0.80;;
74293;SDS011;64044;59.904;10.738;2023-04-01T05:59:25;1.20;;;0.88;;
74293;SDS011;64044;59.904;10.738;2023-04-01T06:01:51;1.25;;;0.50;;
74293;SDS011;64044;59.904;10.738;2023-04-01T06:04:17;3.10;;;0.90;;
74293;SDS011;64044;59.904;10.738;2023-04-01T06:06:43;0.90;;;0.68;;
74293;SDS011;64044;59.904;10.738;2023-04-01T06:54:18;1.77;;;0.50;;
74293;SDS011;64044;59.904;10.738;2023-04-01T06:56:45;1.20;;;0.60;;
74293;SDS011;64044;59.904;10.738;2023-04-01T07:01:47;1.40;;;0.70;;
74293;SDS011;64044;59.904;10.738;2023-04-01T07:04:23;0.75;;;0.52;;
74293;SDS011;64044;59.904;10.738;2023-04-01T07:06:58;1.23;;;0.80;;
74293;SDS011;64044;59.904;10.738;2023-04-01T07:09:38;1.15;;;0.70;;
74293;SDS011;64044;59.904;10.738;2023-04-01T07:12:10;1.38;;;0.70;;
74293;SDS011;64044;59.904;10.738;2023-04-01T07:14:43;1.10;;;0.65;;
74293;SDS011;64044;59.904;10.738;2023-04-01T07:17:31;0.90;;;0.57;;
74293;SDS011;64044;59.904;10.738;2023-04-01T07:20:03;2.08;;;0.65;;
74293;SDS011;64044;59.904;10.738;2023-04-01T07:22:42;5.40;;;0.60;;
74293;SDS011;64044;59.904;10.738;2023-04-01T07:25:15;1.60;;;0.63;;
74293;SDS011;64044;59.904;10.738;2023-04-01T07:28:15;1.38;;;0.50;;
74293;SDS011;64044;59.904;10.738;2023-04-01T07:44:48;1.15;;;0.57;;
74293;SDS011;64044;59.904;10.738;2023-04-01T08:23:14;1.50;;;0.32;;
74293;SDS011;64044;59.904;10.738;2023-04-01T08:25:25;4.78;;;1.05;;
74293;SDS011;64044;59.904;10.738;2023-04-01T08:27:57;2.13;;;1.13;;
74293;SDS011;64044;59.904;10.738;2023-04-01T08:30:44;1.10;;;0.60;;
74293;SDS011;64044;59.904;10.738;2023-04-01T08:38:55;1.52;;;0.40;;
74293;SDS011;64044;59.904;10.738;2023-04-01T08:49:37;0.98;;;0.50;;
74293;SDS011;64044;59.904;10.738;2023-04-01T08:52:35;0.95;;;0.40;;
74293;SDS011;64044;59.904;10.738;2023-04-01T09:00:25;1.23;;;0.55;;
74293;SDS011;64044;59.904;10.738;2023-04-01T09:39:34;2.63;;;0.50;;
74293;SDS011;64044;59.904;10.738;2023-04-01T09:44:59;3.72;;;0.70;;
74293;SDS011;64044;59.904;10.738;2023-04-01T10:13:43;3.60;;;0.50;;
74293;SDS011;64044;59.904;10.738;2023-04-01T10:24:21;1.70;;;0.47;;
74293;SDS011;64044;59.904;10.738;2023-04-01T11:30:39;0.52;;;0.30;;
74293;SDS011;64044;59.904;10.738;2023-04-01T11:33:21;0.55;;;0.20;;
74293;SDS011;64044;59.904;10.738;2023-04-01T11:36:00;0.77;;;0.38;;
74293;SDS011;64044;59.904;10.738;2023-04-01T12:11:51;2.25;;;0.65;;
74293;SDS011;64044;59.904;10.738;2023-04-01T12:14:44;1.52;;;0.60;;
74293;SDS011;64044;59.904;10.738;2023-04-01T12:17:27;0.77;;;0.47;;
74293;SDS011;64044;59.904;10.738;2023-04-01T12:28:41;0.40;;;0.30;;
74293;SDS011;64044;59.904;10.738;2023-04-01T12:39:48;1.20;;;0.45;;
74293;SDS011;64044;59.904;10.738;2023-04-01T12:48:01;1.38;;;0.57;;
74293;SDS011;64044;59.904;10.738;2023-04-01T12:55:45;1.55;;;0.82;;
74293;SDS011;64044;59.904;10.738;2023-04-01T13:01:11;1.30;;;0.60;;
74293;SDS011;64044;59.904;10.738;2023-04-01T13:29:13;0.80;;;0.70;;
74293;SDS011;64044;59.904;10.738;2023-04-01T13:31:59;0.50;;;0.50;;
74293;SDS011;64044;59.904;10.738;2023-04-01T13:39:46;1.65;;;0.52;;
74293;SDS011;64044;59.904;10.738;2023-04-01T13:42:33;0.68;;;0.50;;
74293;SDS011;64044;59.904;10.738;2023-04-01T13:50:43;1.38;;;0.55;;
74293;SDS011;64044;59.904;10.738;2023-04-01T14:01:20;0.82;;;0.60;;
74293;SDS011;64044;59.904;10.738;2023-04-01T14:12:00;1.30;;;0.57;;
74293;SDS011;64044;59.904;10.738;2023-04-01T14:20:26;3.20;;;0.63;;
74293;SDS011;64044;59.904;10.738;2023-04-01T14:23:17;0.80;;;0.60;;
74293;SDS011;64044;59.904;10.738;2023-04-01T14:28:56;0.73;;;0.50;;
74293;SDS011;64044;59.904;10.738;2023-04-01T14:48:34;0.90;;;0.60;;
74293;SDS011;64044;59.904;10.738;2023-04-01T14:54:31;2.05;;;0.63;;
74293;SDS011;64044;59.904;10.738;2023-04-01T15:04:46;0.85;;;0.40;;
74293;SDS011;64044;59.904;10.738;2023-04-01T15:26:47;0.57;;;0.52;;
74293;SDS011;64044;59.904;10.738;2023-04-01T15:37:54;1.10;;;0.80;;
74293;SDS011;64044;59.904;10.738;2023-04-01T15:41:00;3.50;;;0.80;;
74293;SDS011;64044;59.904;10.738;2023-04-01T15:43:41;1.23;;;0.70;;
74293;SDS011;64044;59.904;10.738;2023-04-01T16:24:17;1.90;;;0.60;;
74293;SDS011;64044;59.904;10.738;2023-04-01T16:32:50;1.10;;;0.70;;
74293;SDS011;64044;59.904;10.738;2023-04-01T16:35:23;2.65;;;1.30;;
74293;SDS011;64044;59.904;10.738;2023-04-01T16:41:24;1.80;;;1.48;;
74293;SDS011;64044;59.904;10.738;2023-04-01T16:43:52;3.50;;;2.50;;
74293;SDS011;64044;59.904;10.738;2023-04-01T16:46:35;2.80;;;1.20;;
74293;SDS011;64044;59.904;10.738;2023-04-01T16:59:35;1.20;;;0.88;;
74293;SDS011;64044;59.904;10.738;2023-04-01T17:12:35;4.03;;;1.33;;
74293;SDS011;64044;59.904;10.738;2023-04-01T17:15:30;2.05;;;0.98;;
74293;SDS011;64044;59.904;10.738;2023-04-01T17:18:26;1.75;;;0.60;;
74293;SDS011;64044;59.904;10.738;2023-04-01T17:26:36;15.88;;;2.28;;
74293;SDS011;64044;59.904;10.738;2023-04-01T17:29:19;1.10;;;0.85;;
74293;SDS011;64044;59.904;10.738;2023-04-01T17:45:47;2.10;;;0.93;;
74293;SDS011;64044;59.904;10.738;2023-04-01T17:48:26;5.47;;;1.13;;
74293;SDS011;64044;59.904;10.738;2023-04-01T18:15:27;5.07;;;1.70;;
74293;SDS011;64044;59.904;10.738;2023-04-01T18:18:02;2.65;;;1.70;;
74293;SDS011;64044;59.904;10.738;2023-04-01T18:26:10;7.30;;;3.35;;
74293;SDS011;64044;59.904;10.738;2023-04-01T18:28:52;6.47;;;2.25;;
74293;SDS011;64044;59.904;10.738;2023-04-01T18:31:32;4.25;;;2.10;;
74293;SDS011;64044;59.904;10.738;2023-04-01T18:45:57;7.18;;;2.33;;
74293;SDS011;64044;59.904;10.738;2023-04-01T18:51:16;3.38;;;1.65;;
74293;SDS011;64044;59.904;10.738;2023-04-01T18:54:04;3.03;;;1.63;;
74293;SDS011;64044;59.904;10.738;2023-04-01T18:56:51;4.38;;;1.75;;
74293;SDS011;64044;59.904;10.738;2023-04-01T18:59:55;3.20;;;1.80;;
74293;SDS011;64044;59.904;10.738;2023-04-01T19:02:31;5.53;;;2.08;;
74293;SDS011;64044;59.904;10.738;2023-04-01T19:19:11;8.98;;;2.72;;
74293;SDS011;64044;59.904;10.738;2023-04-01T19:27:29;13.70;;;2.85;;
74293;SDS011;64044;59.904;10.738;2023-04-01T19:36:12;6.10;;;2.83;;
74293;SDS011;64044;59.904;10.738;2023-04-01T19:41:39;8.52;;;3.05;;
74293;SDS011;64044;59.904;10.738;2023-04-01T19:47:15;23.10;;;3.90;;
74293;SDS011;64044;59.904;10.738;2023-04-01T19:52:32;8.70;;;2.38;;
74293;SDS011;64044;59.904;10.738;2023-04-01T20:01:09;7.47;;;2.72;;
74293;SDS011;64044;59.904;10.738;2023-04-01T20:04:03;6.75;;;2.53;;
74293;SDS011;64044;59.904;10.738;2023-04-01T20:06:32;5.35;;;2.33;;
74293;SDS011;64044;59.904;10.738;2023-04-01T20:17:23;3.65;;;2.45;;
74293;SDS011;64044;59.904;10.738;2023-04-01T20:28:05;7.25;;;2.17;;
74293;SDS011;64044;59.904;10.738;2023-04-01T20:30:43;4.95;;;2.63;;
74293;SDS011;64044;59.904;10.738;2023-04-01T20:51:05;8.85;;;3.20;;
74293;SDS011;64044;59.904;10.738;2023-04-01T20:56:41;8.38;;;3.08;;
74293;SDS011;64044;59.904;10.738;2023-04-01T20:59:55;11.27;;;3.47;;
74293;SDS011;64044;59.904;10.738;2023-04-01T21:02:17;10.95;;;3.20;;
74293;SDS011;64044;59.904;10.738;2023-04-01T21:10:41;10.93;;;4.22;;
74293;SDS011;64044;59.904;10.738;2023-04-01T21:13:17;10.07;;;3.55;;
74293;SDS011;64044;59.904;10.738;2023-04-01T21:15:56;12.10;;;4.20;;
74293;SDS011;64044;59.904;10.738;2023-04-01T21:29:56;11.45;;;3.53;;
74293;SDS011;64044;59.904;10.738;2023-04-01T21:44:06;11.30;;;3.53;;
74293;SDS011;64044;59.904;10.738;2023-04-01T22:01:33;7.78;;;3.35;;
74293;SDS011;64044;59.904;10.738;2023-04-01T22:09:21;13.68;;;4.00;;
74293;SDS011;64044;59.904;10.738;2023-04-01T22:12:28;8.05;;;3.25;;
74293;SDS011;64044;59.904;10.738;2023-04-01T22:20:47;8.90;;;3.42;;
74293;SDS011;64044;59.904;10.738;2023-04-01T22:26:15;10.52;;;3.63;;
74293;SDS011;64044;59.904;10.738;2023-04-01T22:28:51;11.32;;;3.53;;
74293;SDS011;64044;59.904;10.738;2023-04-01T22:31:49;12.57;;;3.08;;
74293;SDS011;64044;59.904;10.738;2023-04-01T22:40:16;6.70;;;3.25;;
74293;SDS011;64044;59.904;10.738;2023-04-01T22:43:00;14.95;;;3.90;;
74293;SDS011;64044;59.904;10.738;2023-04-01T22:57:08;9.80;;;3.15;;
74293;SDS011;64044;59.904;10.738;2023-04-01T22:59:39;11.85;;;3.58;;
74293;SDS011;64044;59.904;10.738;2023-04-01T23:02:18;6.85;;;3.03;;
74293;SDS011;64044;59.904;10.738;2023-04-01T23:04:55;12.32;;;3.50;;
74293;SDS011;64044;59.904;10.738;2023-04-01T23:12:56;7.43;;;3.03;;
74293;SDS011;64044;59.904;10.738;2023-04-01T23:15:24;10.88;;;3.30;;
74293;SDS011;64044;59.904;10.738;2023-04-01T23:27:00;9.82;;;3.17;;
74293;SDS011;64044;59.904;10.738;2023-04-01T23:29:35;13.85;;;3.60;;
74293;SDS011;64044;59.904;10.738;2023-04-01T23:32:04;7.38;;;3.33;;
74293;SDS011;64044;59.904;10.738;2023-04-01T23:34:37;12.57;;;3.40;;
74293;SDS011;64044;59.904;10.738;2023-04-01T23:37:04;11.02;;;3.35;;
74293;SDS011;64044;59.904;10.738;2023-04-01T23:39:39;12.95;;;3.10;;
74293;SDS011;64044;59.904;10.738;2023-04-01T23:44:58;9.35;;;3.83;;
74293;SDS011;64044;59.904;10.738;2023-04-01T23:47:38;12.73;;;4.00;;
74293;SDS011;64044;59.904;10.738;2023-04-01T23:50:18;16.08;;;3.65;;
74293;SDS011;64044;59.904;10.738;2023-04-01T23:52:58;6.22;;;2.65;;
74293;SDS011;64044;59.904;10.738;2023-04-01T23:55:29;7.03;;;2.60;;
74293;SDS011;64044;59.904;10.738;2023-04-01T23:58:01;10.40;;;2.75;;
